createdAt,value
2018-06-14T00:58:48.652Z,12.20
2018-06-14T01:01:17.019Z,12.20
2018-06-14T01:03:45.845Z,12.10
2018-06-14T01:06:14.283Z,12.10
2018-06-14T01:08:42.671Z,12.10
2018-06-14T01:11:11.310Z,12.10
2018-06-14T01:13:39.899Z,12.10
2018-06-14T01:16:08.273Z,12.10
2018-06-14T01:18:37.337Z,12.10
2018-06-14T01:21:05.891Z,12.10
2018-06-14T01:23:34.326Z,12.10
2018-06-14T01:26:02.941Z,12.10
2018-06-14T01:28:31.391Z,12.10
2018-06-14T01:31:00.348Z,12.10
2018-06-14T01:33:28.959Z,12.10
2018-06-14T01:35:57.671Z,12.00
2018-06-14T01:38:27.093Z,12.00
2018-06-14T01:40:55.986Z,12.00
2018-06-14T01:43:24.765Z,12.00
2018-06-14T01:45:53.267Z,12.00
2018-06-14T01:48:22.588Z,12.00
2018-06-14T01:50:51.151Z,12.00
2018-06-14T01:53:19.923Z,12.00
2018-06-14T01:55:48.363Z,12.00
2018-06-14T01:58:17.171Z,12.00
2018-06-14T02:00:46.975Z,12.00
2018-06-14T02:03:15.564Z,12.00
2018-06-14T02:05:43.976Z,12.00
2018-06-14T02:08:12.521Z,11.90
2018-06-14T02:10:41.687Z,12.00
2018-06-14T02:13:10.372Z,11.90
2018-06-14T02:15:38.916Z,11.90
2018-06-14T02:18:07.747Z,11.90
2018-06-14T02:20:36.322Z,11.90
2018-06-14T02:23:04.775Z,11.90
2018-06-14T02:25:33.135Z,11.90
2018-06-14T02:28:02.368Z,11.90
2018-06-14T02:30:31.516Z,11.90
2018-06-14T02:33:00.293Z,11.90
2018-06-14T02:35:28.960Z,11.80
2018-06-14T02:37:57.487Z,11.90
2018-06-14T02:40:26.582Z,11.80
2018-06-14T02:42:55.973Z,11.80
2018-06-14T02:45:24.560Z,11.80
2018-06-14T02:47:53.037Z,11.80
2018-06-14T02:50:21.903Z,11.80
2018-06-14T02:52:50.540Z,11.80
2018-06-14T02:55:19.141Z,11.70
2018-06-14T02:57:47.512Z,11.70
2018-06-14T03:00:16.812Z,11.80
2018-06-14T03:02:45.599Z,11.70
2018-06-14T03:05:14.236Z,11.80
2018-06-14T03:07:42.737Z,11.80
2018-06-14T03:10:11.569Z,11.80
2018-06-14T03:12:40.910Z,11.80
2018-06-14T03:15:09.575Z,11.80
2018-06-14T03:17:38.093Z,11.80
2018-06-14T03:20:07.097Z,11.80
2018-06-14T03:22:35.501Z,11.80
2018-06-14T03:25:04.144Z,11.80
2018-06-14T03:27:32.573Z,11.80
2018-06-14T03:30:00.939Z,11.80
2018-06-14T03:32:29.332Z,11.80
2018-06-14T03:34:57.729Z,11.80
2018-06-14T03:37:29.330Z,11.80
2018-06-14T03:39:57.820Z,11.80
2018-06-14T03:42:26.785Z,11.80
2018-06-14T03:44:55.461Z,11.80
2018-06-14T03:47:24.049Z,11.80
2018-06-14T03:49:52.936Z,11.80
2018-06-14T03:52:22.335Z,11.80
2018-06-14T03:54:50.730Z,11.80
2018-06-14T03:57:19.400Z,11.80
2018-06-14T03:59:48.117Z,11.80
2018-06-14T04:02:16.493Z,11.90
2018-06-14T04:04:44.926Z,11.90
2018-06-14T04:07:13.277Z,11.90
2018-06-14T04:09:41.738Z,11.90
2018-06-14T04:12:10.927Z,11.90
2018-06-14T04:14:39.332Z,12.00
2018-06-14T04:17:07.768Z,12.00
2018-06-14T04:19:36.549Z,12.00
2018-06-14T04:22:05.279Z,12.00
2018-06-14T04:24:33.852Z,12.10
2018-06-14T04:27:03.277Z,12.10
2018-06-14T04:29:32.870Z,12.10
2018-06-14T04:32:01.273Z,12.10
2018-06-14T04:34:29.626Z,12.10
2018-06-14T04:36:57.967Z,12.20
2018-06-14T04:39:26.486Z,12.20
2018-06-14T04:41:54.975Z,12.20
2018-06-14T04:44:23.814Z,12.20
2018-06-14T04:46:52.732Z,12.30
2018-06-14T04:49:21.109Z,12.30
2018-06-14T04:51:49.534Z,12.30
2018-06-14T04:54:18.335Z,12.30
2018-06-14T04:56:46.744Z,12.30
2018-06-14T04:59:15.152Z,12.30
2018-06-14T05:01:43.704Z,12.30
2018-06-14T05:04:12.099Z,12.40
2018-06-14T05:06:40.656Z,12.40
2018-06-14T05:09:11.383Z,12.40
2018-06-14T05:11:40.383Z,12.40
2018-06-14T05:14:09.260Z,12.50
2018-06-14T05:16:37.783Z,12.50
2018-06-14T05:19:07.077Z,12.50
2018-06-14T05:21:35.903Z,12.60
2018-06-14T05:24:04.356Z,12.60
2018-06-14T05:26:32.986Z,12.70
2018-06-14T05:29:02.776Z,12.80
2018-06-14T05:31:31.928Z,12.80
2018-06-14T05:34:00.300Z,12.80
2018-06-14T05:36:28.896Z,12.90
2018-06-14T05:38:58.674Z,13.00
2018-06-14T05:41:27.166Z,13.20
2018-06-14T05:43:55.666Z,13.40
2018-06-14T05:46:24.441Z,13.50
2018-06-14T05:48:52.812Z,13.70
2018-06-14T05:51:21.179Z,13.70
2018-06-14T05:53:50.022Z,13.80
2018-06-14T05:56:18.467Z,14.00
2018-06-14T05:58:47.043Z,14.00
2018-06-14T06:01:15.964Z,14.00
2018-06-14T06:03:44.580Z,14.00
2018-06-14T06:06:13.307Z,14.00
2018-06-14T06:08:44.018Z,14.00
2018-06-14T06:11:12.499Z,14.10
2018-06-14T06:13:41.500Z,14.20
2018-06-14T06:16:10.366Z,14.20
2018-06-14T06:18:39.633Z,14.20
2018-06-14T06:21:08.313Z,14.20
2018-06-14T06:23:36.800Z,14.30
2018-06-14T06:26:05.708Z,14.60
2018-06-14T06:28:34.521Z,14.70
2018-06-14T06:31:03.039Z,14.70
2018-06-14T06:33:31.592Z,14.80
2018-06-14T06:35:59.865Z,15.20
2018-06-14T06:38:28.309Z,15.40
2018-06-14T06:40:56.718Z,15.40
2018-06-14T06:43:25.243Z,15.50
2018-06-14T06:45:53.646Z,15.60
2018-06-14T06:48:22.266Z,15.60
2018-06-14T06:50:51.093Z,15.40
2018-06-14T06:53:19.469Z,15.30
2018-06-14T06:55:48.165Z,15.40
2018-06-14T06:58:16.611Z,15.50
2018-06-14T07:00:45.561Z,15.80
2018-06-14T07:03:14.320Z,16.10
2018-06-14T07:05:43.474Z,16.60
2018-06-14T07:08:18.729Z,16.40
2018-06-14T07:10:50.175Z,16.40
2018-06-14T07:13:26.393Z,16.50
2018-06-14T07:15:58.712Z,16.50
2018-06-14T07:18:42.765Z,16.70
2018-06-14T07:21:13.628Z,17.00
2018-06-14T07:23:42.646Z,17.50
2018-06-14T07:26:11.445Z,17.50
2018-06-14T07:28:40.144Z,17.80
2018-06-14T07:31:24.012Z,17.60
2018-06-14T07:33:55.255Z,17.40
2018-06-14T07:39:18.403Z,17.10
2018-06-14T07:41:48.203Z,16.90
2018-06-14T07:44:16.816Z,17.10
2018-06-14T07:46:45.437Z,17.30
2018-06-14T07:49:14.284Z,17.30
2018-06-14T07:51:42.846Z,17.50
2018-06-14T07:54:11.692Z,17.90
2018-06-14T07:56:40.048Z,18.50
2018-06-14T07:59:08.850Z,19.10
2018-06-14T08:01:38.711Z,19.90
2018-06-14T08:04:07.516Z,20.10
2018-06-14T08:06:37.247Z,20.60
2018-06-14T08:09:07.565Z,20.80
2018-06-14T08:11:36.255Z,21.20
2018-06-14T08:14:05.972Z,21.80
2018-06-14T08:16:34.934Z,22.10
2018-06-14T08:19:04.645Z,22.60
2018-06-14T08:21:33.240Z,22.30
2018-06-14T08:24:02.042Z,22.50
2018-06-14T08:26:30.743Z,22.10
2018-06-14T08:28:59.125Z,22.20
2018-06-14T08:31:28.670Z,22.00
2018-06-14T08:36:25.839Z,21.60
2018-06-14T08:38:54.894Z,21.20
2018-06-14T08:41:23.459Z,20.70
2018-06-14T08:43:52.312Z,20.00
2018-06-14T08:48:49.296Z,19.40
2018-06-14T08:51:18.329Z,19.20
2018-06-14T08:53:47.046Z,19.70
2018-06-14T08:56:15.729Z,19.50
2018-06-14T08:58:44.454Z,19.40
2018-06-14T09:01:13.598Z,19.60
2018-06-14T09:03:41.986Z,19.70
2018-06-14T09:06:10.380Z,19.40
2018-06-14T09:08:38.804Z,19.10
2018-06-14T09:11:08.120Z,18.80
2018-06-14T09:13:36.832Z,18.60
2018-06-14T09:16:05.569Z,18.30
2018-06-14T09:18:34.260Z,17.90
2018-06-14T09:21:02.968Z,17.80
2018-06-14T09:23:32.734Z,17.40
2018-06-14T09:26:01.168Z,17.20
2018-06-14T09:28:30.909Z,17.00
2018-06-14T09:30:59.991Z,17.10
2018-06-14T09:33:29.132Z,16.90
2018-06-14T09:35:57.828Z,16.70
2018-06-14T09:38:26.835Z,16.60
2018-06-14T09:40:55.219Z,16.50
2018-06-14T09:43:24.415Z,16.60
2018-06-14T09:45:53.404Z,16.60
2018-06-14T09:48:22.013Z,16.70
2018-06-14T09:50:50.688Z,16.90
2018-06-14T09:53:19.706Z,17.00
2018-06-14T09:55:48.214Z,17.10
2018-06-14T09:58:16.741Z,17.20
2018-06-14T10:00:46.306Z,17.30
2018-06-14T10:03:15.471Z,17.40
2018-06-14T10:05:43.918Z,17.50
2018-06-14T10:08:12.722Z,17.50
2018-06-14T10:10:41.348Z,17.60
2018-06-14T10:13:09.765Z,17.70
2018-06-14T10:15:38.537Z,17.90
2018-06-14T10:18:06.995Z,18.00
2018-06-14T10:20:35.420Z,18.10
2018-06-14T10:23:03.950Z,18.10
2018-06-14T10:25:33.411Z,18.00
2018-06-14T10:28:01.904Z,18.20
2018-06-14T10:30:30.476Z,18.20
2018-06-14T10:32:59.292Z,18.20
2018-06-14T10:35:27.744Z,18.30
2018-06-14T10:37:56.417Z,18.60
2018-06-14T10:40:24.831Z,18.80
2018-06-14T10:42:53.225Z,18.80
2018-06-14T10:45:21.860Z,18.90
2018-06-14T10:47:50.500Z,18.80
2018-06-14T10:50:19.391Z,18.80
2018-06-14T10:52:48.001Z,19.00
2018-06-14T10:55:16.464Z,18.70
2018-06-14T10:57:45.320Z,18.80
2018-06-14T11:00:15.499Z,19.20
2018-06-14T11:02:44.009Z,19.30
2018-06-14T11:05:12.438Z,19.40
2018-06-14T11:07:40.969Z,19.70
2018-06-14T11:10:09.369Z,19.50
2018-06-14T11:12:37.837Z,19.30
2018-06-14T11:17:35.639Z,19.40
2018-06-14T11:20:04.627Z,19.60
2018-06-14T11:22:33.123Z,19.90
2018-06-14T11:25:02.756Z,19.90
2018-06-14T11:27:32.519Z,20.10
2018-06-14T11:30:01.152Z,20.20
2018-06-14T11:32:29.526Z,20.30
2018-06-14T11:34:58.708Z,20.20
2018-06-14T11:37:27.481Z,20.10
2018-06-14T11:39:56.121Z,20.40
2018-06-14T11:42:25.110Z,20.50
2018-06-14T11:44:53.595Z,20.20
2018-06-14T11:47:22.429Z,20.20
2018-06-14T11:49:51.346Z,20.00
2018-06-14T11:52:19.958Z,20.10
2018-06-14T11:54:48.417Z,20.00
2018-06-14T11:57:17.089Z,20.30
2018-06-14T11:59:49.838Z,20.40
2018-06-14T12:02:19.126Z,20.40
2018-06-14T12:04:48.033Z,20.70
2018-06-14T12:07:17.092Z,20.70
2018-06-14T12:09:45.736Z,20.70
2018-06-14T12:12:14.748Z,21.00
2018-06-14T12:14:43.648Z,20.90
2018-06-14T12:17:12.527Z,20.60
2018-06-14T12:19:41.073Z,20.50
2018-06-14T12:22:09.681Z,20.40
2018-06-14T12:24:38.061Z,20.60
2018-06-14T12:27:06.580Z,21.00
2018-06-14T12:29:35.501Z,21.50
2018-06-14T12:32:04.476Z,21.60
2018-06-14T12:34:33.140Z,21.60
2018-06-14T12:37:01.789Z,21.30
2018-06-14T12:39:30.648Z,21.00
2018-06-14T12:41:59.303Z,20.50
2018-06-14T12:44:30.295Z,20.20
2018-06-14T12:46:59.163Z,20.10
2018-06-14T12:49:27.589Z,20.10
2018-06-14T12:51:55.977Z,20.20
2018-06-14T12:54:24.572Z,20.80
2018-06-14T12:56:53.857Z,21.40
2018-06-14T12:59:22.504Z,21.50
2018-06-14T13:01:51.012Z,21.70
2018-06-14T13:04:21.639Z,21.80
2018-06-14T13:06:50.067Z,21.80
2018-06-14T13:09:18.569Z,22.00
2018-06-14T13:11:47.519Z,22.00
2018-06-14T13:14:16.136Z,22.20
2018-06-14T13:19:13.920Z,21.10
2018-06-14T13:24:11.329Z,21.00
2018-06-14T13:26:39.998Z,21.40
2018-06-14T13:29:08.398Z,21.70
2018-06-14T13:31:37.006Z,21.80
2018-06-14T13:34:05.684Z,21.40
2018-06-14T13:36:34.567Z,21.10
2018-06-14T13:39:03.085Z,21.00
2018-06-14T13:41:31.753Z,20.90
2018-06-14T13:44:00.500Z,21.00
2018-06-14T13:46:28.924Z,20.60
2018-06-14T13:48:58.075Z,20.60
2018-06-14T13:53:54.661Z,21.20
2018-06-14T13:56:23.217Z,21.70
2018-06-14T13:58:51.711Z,21.80
2018-06-14T14:01:20.254Z,22.00
2018-06-14T14:03:48.824Z,22.20
2018-06-14T14:06:17.443Z,21.90
2018-06-14T14:08:45.994Z,22.10
2018-06-14T14:11:14.653Z,22.10
2018-06-14T14:13:43.152Z,22.00
2018-06-14T14:16:11.721Z,22.20
2018-06-14T14:18:40.752Z,21.50
2018-06-14T14:21:09.813Z,21.10
2018-06-14T14:23:38.219Z,20.70
2018-06-14T14:26:07.091Z,20.40
2018-06-14T14:28:35.595Z,20.10
2018-06-14T14:31:04.520Z,19.80
2018-06-14T14:33:33.296Z,19.60
2018-06-14T14:36:01.956Z,19.50
2018-06-14T14:38:30.384Z,19.40
2018-06-14T14:40:58.764Z,19.40
2018-06-14T14:43:27.350Z,19.90
2018-06-14T14:45:56.090Z,20.20
2018-06-14T14:48:24.660Z,20.70
2018-06-14T14:50:53.451Z,21.10
2018-06-14T14:53:22.810Z,21.40
2018-06-14T14:55:51.575Z,21.20
2018-06-14T14:58:20.125Z,21.10
2018-06-14T15:00:49.194Z,20.80
2018-06-14T15:03:17.632Z,20.50
2018-06-14T15:05:46.073Z,20.20
2018-06-14T15:08:14.472Z,20.00
2018-06-14T15:10:43.424Z,20.00
2018-06-14T15:13:13.490Z,19.80
2018-06-14T15:15:42.097Z,19.70
2018-06-14T15:18:11.204Z,19.30
2018-06-14T15:20:40.488Z,19.50
2018-06-14T15:23:10.407Z,19.50
2018-06-14T15:25:39.038Z,19.40
2018-06-14T15:28:07.544Z,19.30
2018-06-14T15:30:35.986Z,19.30
2018-06-14T15:33:04.512Z,19.30
2018-06-14T15:35:33.856Z,19.10
2018-06-14T15:38:04.208Z,18.80
2018-06-14T15:40:33.114Z,18.50
2018-06-14T15:43:01.740Z,18.20
2018-06-14T15:45:30.113Z,18.10
2018-06-14T15:47:59.171Z,17.90
2018-06-14T15:50:28.024Z,17.70
2018-06-14T15:52:56.412Z,17.50
2018-06-14T15:55:38.803Z,17.50
2018-06-14T15:58:08.079Z,17.50
2018-06-14T16:00:36.490Z,17.60
2018-06-14T16:03:05.073Z,17.40
2018-06-14T16:05:33.640Z,17.40
2018-06-14T16:08:03.689Z,17.40
2018-06-14T16:10:32.340Z,17.40
2018-06-14T16:13:00.800Z,17.30
2018-06-14T16:15:29.228Z,17.40
2018-06-14T16:17:57.700Z,17.70
2018-06-14T16:20:26.154Z,18.00
2018-06-14T16:22:55.003Z,18.10
2018-06-14T16:25:23.772Z,18.20
2018-06-14T16:27:52.398Z,18.30
2018-06-14T16:30:20.895Z,18.60
2018-06-14T16:32:50.875Z,18.50
2018-06-14T16:35:21.076Z,18.60
2018-06-14T16:40:20.224Z,18.60
2018-06-14T16:42:49.760Z,18.60
2018-06-14T16:45:18.212Z,18.60
2018-06-14T16:47:46.830Z,18.70
2018-06-14T16:50:15.817Z,18.70
2018-06-14T16:52:44.261Z,18.60
2018-06-14T16:55:12.671Z,18.60
2018-06-14T16:57:41.407Z,18.60
2018-06-14T17:00:10.009Z,18.50
2018-06-14T17:02:39.029Z,18.30
2018-06-14T17:05:08.148Z,18.20
2018-06-14T17:07:38.202Z,18.20
2018-06-14T17:10:06.671Z,18.10
2018-06-14T17:12:35.347Z,17.80
2018-06-14T17:15:04.863Z,17.70
2018-06-14T17:17:33.447Z,17.60
2018-06-14T17:20:03.470Z,17.50
2018-06-14T17:22:32.079Z,17.30
2018-06-14T17:25:00.515Z,17.30
2018-06-14T17:27:32.500Z,17.10
2018-06-14T17:30:01.057Z,17.10
2018-06-14T17:32:30.349Z,17.10
2018-06-14T17:37:27.198Z,17.00
2018-06-14T17:39:56.357Z,16.90
2018-06-14T17:42:25.383Z,16.90
2018-06-14T17:44:53.911Z,16.80
2018-06-14T17:47:22.325Z,16.80
2018-06-14T17:49:51.589Z,16.80
2018-06-14T17:52:20.546Z,16.60
2018-06-14T17:54:49.142Z,16.60
2018-06-14T17:57:17.558Z,16.60
2018-06-14T17:59:46.255Z,16.60
2018-06-14T18:02:14.898Z,16.50
2018-06-14T18:04:43.537Z,16.40
2018-06-14T18:07:12.455Z,16.30
2018-06-14T18:09:41.137Z,16.20
2018-06-14T18:12:09.564Z,16.20
2018-06-14T18:14:38.425Z,16.10
2018-06-14T18:17:07.073Z,16.00
2018-06-14T18:19:35.825Z,16.00
2018-06-14T18:22:04.708Z,15.90
2018-06-14T18:24:33.812Z,15.90
2018-06-14T18:27:02.389Z,15.80
2018-06-14T18:29:31.205Z,15.70
2018-06-14T18:32:00.023Z,15.70
2018-06-14T18:34:28.871Z,15.60
2018-06-14T18:36:58.481Z,15.60
2018-06-14T18:39:27.227Z,15.50
2018-06-14T18:41:56.738Z,15.50
2018-06-14T18:44:25.144Z,15.40
2018-06-14T18:46:53.732Z,15.30
2018-06-14T18:49:22.692Z,15.20
2018-06-14T18:51:52.061Z,15.20
2018-06-14T18:54:21.785Z,15.10
2018-06-14T18:56:50.464Z,15.00
2018-06-14T18:59:19.031Z,14.90
2018-06-14T19:01:47.934Z,14.80
2018-06-14T19:04:16.484Z,14.80
2018-06-14T19:06:45.307Z,14.70
2018-06-14T19:09:13.714Z,14.60
2018-06-14T19:11:42.400Z,14.50
2018-06-14T19:14:10.830Z,14.40
2018-06-14T19:16:39.254Z,14.30
2018-06-14T19:19:07.723Z,14.30
2018-06-14T19:21:36.845Z,14.30
2018-06-14T19:24:05.580Z,14.20
2018-06-14T19:26:34.107Z,14.20
2018-06-14T19:31:31.307Z,14.00
2018-06-14T19:33:59.843Z,13.90
2018-06-14T19:36:28.948Z,13.90
2018-06-14T19:38:57.588Z,13.90
2018-06-14T19:41:26.497Z,13.80
2018-06-14T19:43:55.397Z,13.70
2018-06-14T19:46:23.798Z,13.70
2018-06-14T19:48:52.418Z,13.60
2018-06-14T19:51:21.123Z,13.60
2018-06-14T19:53:50.060Z,13.50
2018-06-14T19:56:18.772Z,13.50
2018-06-14T19:58:47.345Z,13.50
2018-06-14T20:01:15.810Z,13.40
2018-06-14T20:03:44.928Z,13.40
2018-06-14T20:06:14.833Z,13.30
2018-06-14T20:08:44.164Z,13.30
2018-06-14T20:11:14.248Z,13.20
2018-06-14T20:13:43.447Z,13.20
2018-06-14T20:16:11.873Z,13.10
2018-06-14T20:18:40.644Z,13.00
2018-06-14T20:21:10.225Z,13.00
2018-06-14T20:23:38.743Z,12.90
2018-06-14T20:26:07.595Z,12.80
2018-06-14T20:28:36.689Z,12.80
2018-06-14T20:31:06.428Z,12.70
2018-06-14T20:33:35.761Z,12.70
2018-06-14T20:36:04.266Z,12.60
2018-06-14T20:38:33.340Z,12.60
2018-06-14T20:41:01.848Z,12.50
2018-06-14T20:43:30.357Z,12.50
2018-06-14T20:45:59.503Z,12.50
2018-06-14T20:48:28.452Z,12.40
2018-06-14T20:50:57.088Z,12.30
2018-06-14T20:53:25.511Z,12.30
2018-06-14T20:55:53.921Z,12.30
2018-06-14T20:58:22.616Z,12.20
2018-06-14T21:00:52.268Z,12.20
2018-06-14T21:03:21.524Z,12.20
2018-06-14T21:05:50.144Z,12.20
2018-06-14T21:08:18.549Z,12.20
2018-06-14T21:10:46.951Z,12.10
2018-06-14T21:13:15.407Z,12.10
2018-06-14T21:15:43.814Z,12.10
2018-06-14T21:18:12.575Z,12.00
2018-06-14T21:20:40.985Z,12.00
2018-06-14T21:23:09.341Z,12.00
2018-06-14T21:25:37.797Z,11.90
2018-06-14T21:28:06.623Z,11.90
2018-06-14T21:30:35.820Z,11.90
2018-06-14T21:33:04.324Z,11.80
2018-06-14T21:35:33.342Z,11.80
2018-06-14T21:38:02.300Z,11.80
2018-06-14T21:40:30.680Z,11.70
2018-06-14T21:42:59.452Z,11.70
2018-06-14T21:45:28.322Z,11.60
2018-06-14T21:47:57.724Z,11.50
2018-06-14T21:50:26.575Z,11.50
2018-06-14T21:52:55.313Z,11.50
2018-06-14T21:55:23.913Z,11.40
